Time;durP1;ratioP1;P1;durP2;ratioP2;P2;SDS_P1;SDS_P2;PMS_P1;PMS_P2;Temp;Humidity;BMP_temperature;BMP_pressure;BME280_temperature;BME280_humidity;BME280_pressure;Samples;Min_cycle;Max_cycle;Signal;HPM_P1;HPM_P2
2022/03/13 05:02:28;;;;;;;9.45;6.30;;;1.80;67.00;;;;;;5014865;23;20291;-69
2022/03/13 05:04:55;;;;;;;8.02;7.00;;;1.70;67.10;;;;;;4934483;28;21183;-70
2022/03/13 05:07:22;;;;;;;8.88;6.30;;;1.70;67.10;;;;;;4930796;29;20241;-71
2022/03/13 05:09:49;;;;;;;6.32;5.78;;;1.70;67.50;;;;;;4932757;29;20221;-71
2022/03/13 05:12:16;;;;;;;11.43;5.78;;;1.60;67.40;;;;;;4929417;29;20229;-70
2022/03/13 05:14:43;;;;;;;11.90;7.28;;;1.60;67.40;;;;;;4933357;29;20210;-70
2022/03/13 05:17:10;;;;;;;7.68;6.85;;;1.60;67.40;;;;;;4925063;29;20205;-71
2022/03/13 05:19:39;;;;;;;7.60;6.90;;;1.60;67.70;;;;;;4924373;29;20202;-70
2022/03/13 05:22:05;;;;;;;6.20;5.70;;;1.60;68.10;;;;;;4931773;29;20698;-70
2022/03/13 05:24:32;;;;;;;7.07;6.47;;;1.50;68.90;;;;;;4931925;29;20584;-70
2022/03/13 05:26:59;;;;;;;9.98;6.57;;;1.40;69.60;;;;;;4928910;29;20225;-70
2022/03/13 05:29:26;;;;;;;7.03;6.43;;;1.40;70.40;;;;;;4929992;29;20686;-70
2022/03/13 05:31:52;;;;;;;12.30;7.13;;;1.30;70.40;;;;;;4927388;29;20230;-70
2022/03/13 05:34:19;;;;;;;6.07;5.57;;;1.30;70.30;;;;;;4933344;29;20206;-71
2022/03/13 05:36:47;;;;;;;6.85;6.13;;;1.30;70.40;;;;;;4933291;29;20297;-70
2022/03/13 05:39:14;;;;;;;7.90;6.60;;;1.30;69.90;;;;;;4933322;29;20726;-70
2022/03/13 05:41:42;;;;;;;7.20;6.00;;;1.30;69.80;;;;;;4930630;29;20222;-70
2022/03/13 05:44:10;;;;;;;11.32;6.32;;;1.30;69.30;;;;;;4914862;29;20297;-71
2022/03/13 05:46:37;;;;;;;7.25;6.50;;;1.30;69.20;;;;;;4914782;29;20218;-70
2022/03/13 05:49:04;;;;;;;10.52;7.18;;;1.30;69.10;;;;;;4928833;29;20206;-70
2022/03/13 05:51:35;;;;;;;8.98;6.07;;;1.30;69.60;;;;;;4933435;29;20343;-70
2022/03/13 05:54:04;;;;;;;8.65;5.65;;;1.20;69.70;;;;;;4933644;29;20209;-70
2022/03/13 05:56:31;;;;;;;7.65;6.80;;;1.30;69.80;;;;;;4933400;29;20237;-70
2022/03/13 05:58:58;;;;;;;8.68;5.38;;;1.30;69.30;;;;;;4933090;29;20213;-70
2022/03/13 06:01:25;;;;;;;9.43;5.97;;;1.30;69.20;;;;;;4932849;29;20245;-70
2022/03/13 06:03:53;;;;;;;8.18;5.85;;;1.30;69.70;;;;;;4929339;29;20564;-70
2022/03/13 06:06:20;;;;;;;11.52;6.35;;;1.30;69.70;;;;;;4933360;29;20256;-70
2022/03/13 06:08:47;;;;;;;9.55;5.90;;;1.40;69.50;;;;;;4933198;29;20262;-70
2022/03/13 06:11:15;;;;;;;15.63;6.82;;;1.40;69.30;;;;;;4935594;29;20335;-71
2022/03/13 06:13:42;;;;;;;7.18;6.40;;;1.40;69.80;;;;;;4936828;29;20205;-71
2022/03/13 06:16:08;;;;;;;6.75;6.15;;;1.30;71.30;;;;;;4937160;29;20206;-70
2022/03/13 06:18:37;;;;;;;9.95;6.80;;;1.20;72.60;;;;;;4936557;29;20205;-70
2022/03/13 06:21:05;;;;;;;6.15;5.65;;;1.10;73.70;;;;;;4936463;29;20230;-69
2022/03/13 06:23:32;;;;;;;9.45;7.18;;;1.10;74.40;;;;;;4936437;29;20209;-70
2022/03/13 06:25:59;;;;;;;8.27;6.72;;;1.00;75.10;;;;;;4936747;29;20229;-71
2022/03/13 06:28:28;;;;;;;8.25;7.13;;;1.00;75.30;;;;;;4936612;29;20226;-70
2022/03/13 06:30:55;;;;;;;9.85;7.35;;;1.00;75.10;;;;;;4936477;29;20253;-70
2022/03/13 06:33:22;;;;;;;8.48;6.65;;;1.00;75.00;;;;;;4936870;29;20209;-70
2022/03/13 06:35:49;;;;;;;8.90;6.85;;;1.10;75.10;;;;;;4936440;29;20245;-69
2022/03/13 06:38:16;;;;;;;10.25;6.80;;;1.10;75.70;;;;;;4936289;29;20210;-68
2022/03/13 06:40:43;;;;;;;10.43;7.35;;;1.30;75.50;;;;;;4936492;29;20300;-69
2022/03/13 06:43:10;;;;;;;9.95;6.28;;;1.40;74.60;;;;;;4936288;29;20202;-69
2022/03/13 06:45:38;;;;;;;9.93;7.07;;;1.50;74.50;;;;;;4936411;29;20210;-69
2022/03/13 06:48:05;;;;;;;6.95;6.43;;;1.60;73.40;;;;;;4935995;29;20587;-69
2022/03/13 06:50:31;;;;;;;8.73;6.93;;;1.60;73.10;;;;;;4935917;29;20248;-70
2022/03/13 06:52:59;;;;;;;6.25;5.25;;;1.60;72.60;;;;;;4936084;29;20205;-69
2022/03/13 06:55:27;;;;;;;7.00;6.30;;;1.60;72.20;;;;;;4934716;29;20232;-69
2022/03/13 06:57:54;;;;;;;8.70;6.53;;;1.70;71.60;;;;;;4935348;29;20209;-69
2022/03/13 07:00:21;;;;;;;6.75;5.53;;;1.80;70.10;;;;;;4930116;29;20209;-70
2022/03/13 07:02:50;;;;;;;7.20;6.60;;;1.90;70.10;;;;;;4931124;29;20281;-68
2022/03/13 07:05:19;;;;;;;8.18;6.78;;;2.00;69.50;;;;;;4929069;29;20231;-68
2022/03/13 07:07:46;;;;;;;6.45;5.88;;;2.10;68.80;;;;;;4932865;29;20264;-69
2022/03/13 07:10:12;;;;;;;9.82;6.75;;;2.20;68.30;;;;;;4934005;29;20217;-68
2022/03/13 07:12:40;;;;;;;6.72;6.25;;;2.20;68.10;;;;;;4931472;29;20216;-69
2022/03/13 07:15:10;;;;;;;6.70;5.78;;;2.30;68.20;;;;;;4934734;29;20206;-68
2022/03/13 07:17:37;;;;;;;7.70;6.60;;;2.40;67.60;;;;;;4934807;29;20697;-68
2022/03/13 07:20:07;;;;;;;12.80;7.90;;;2.50;66.90;;;;;;4935324;29;20602;-69
2022/03/13 07:22:33;;;;;;;6.13;5.55;;;2.50;67.00;;;;;;4928521;29;20230;-69
2022/03/13 07:25:00;;;;;;;7.85;5.75;;;2.60;66.50;;;;;;4935826;29;20232;-68
2022/03/13 07:27:27;;;;;;;7.75;6.93;;;2.70;66.50;;;;;;4928040;29;20232;-68
2022/03/13 07:29:53;;;;;;;12.05;6.50;;;2.80;66.20;;;;;;4924006;29;20855;-68
2022/03/13 07:32:21;;;;;;;6.35;5.85;;;2.80;66.30;;;;;;4934418;29;20245;-70
2022/03/13 07:34:48;;;;;;;5.05;4.68;;;2.90;65.10;;;;;;4934650;29;20197;-71
2022/03/13 07:37:16;;;;;;;8.43;6.68;;;3.00;65.10;;;;;;4934902;29;20206;-70
2022/03/13 07:39:47;;;;;;;4.00;3.75;;;3.10;64.50;;;;;;4933783;29;20210;-70
2022/03/13 07:42:14;;;;;;;3.33;3.03;;;3.20;64.10;;;;;;4924435;29;20297;-69
2022/03/13 07:44:41;;;;;;;4.68;4.28;;;3.30;63.80;;;;;;4932771;29;20217;-71
2022/03/13 07:47:08;;;;;;;8.23;5.05;;;3.40;63.70;;;;;;4923854;29;20643;-70
2022/03/13 07:49:34;;;;;;;8.95;6.65;;;3.50;63.70;;;;;;4933767;29;20241;-70
2022/03/13 07:52:01;;;;;;;8.20;6.20;;;3.50;63.10;;;;;;4934049;29;20233;-69
2022/03/13 07:54:29;;;;;;;5.50;5.00;;;3.60;62.70;;;;;;4933858;29;20565;-69
2022/03/13 07:56:56;;;;;;;8.50;7.43;;;3.70;62.80;;;;;;4934272;29;20214;-70
2022/03/13 07:59:23;;;;;;;4.20;3.92;;;3.80;63.10;;;;;;4934678;29;20217;-70
2022/03/13 08:01:50;;;;;;;7.40;6.65;;;3.90;62.90;;;;;;4929717;29;20234;-69
2022/03/13 08:04:17;;;;;;;4.38;4.03;;;4.00;62.40;;;;;;4930288;29;20576;-69
2022/03/13 08:06:44;;;;;;;6.75;6.18;;;4.00;61.10;;;;;;4934360;29;20221;-70
2022/03/13 08:09:11;;;;;;;6.78;6.13;;;4.10;61.60;;;;;;4932719;29;20245;-69
2022/03/13 08:11:41;;;;;;;6.45;5.95;;;4.20;61.60;;;;;;4928964;29;20226;-70
2022/03/13 08:14:08;;;;;;;5.95;5.00;;;4.20;61.60;;;;;;4933066;29;20305;-70
2022/03/13 08:16:35;;;;;;;4.57;4.28;;;4.40;61.00;;;;;;4936001;29;20215;-70
2022/03/13 08:19:02;;;;;;;8.95;7.15;;;4.50;60.70;;;;;;4935982;29;20249;-70
2022/03/13 08:21:29;;;;;;;4.63;4.15;;;4.60;60.70;;;;;;4932770;29;20229;-71
2022/03/13 08:23:56;;;;;;;8.35;4.20;;;4.70;59.40;;;;;;4928099;29;20210;-69
2022/03/13 08:26:22;;;;;;;6.70;5.93;;;4.70;58.70;;;;;;4921874;29;20209;-69
2022/03/13 08:28:51;;;;;;;5.38;4.90;;;4.80;59.00;;;;;;4933286;29;20702;-71
2022/03/13 08:31:17;;;;;;;6.43;5.72;;;4.80;59.00;;;;;;4932003;29;20222;-69
2022/03/13 08:33:45;;;;;;;4.38;2.78;;;4.90;58.60;;;;;;4932563;29;20202;-68
2022/03/13 08:36:12;;;;;;;5.28;4.80;;;5.00;58.50;;;;;;4923172;29;20209;-69
2022/03/13 08:38:39;;;;;;;7.13;5.75;;;5.00;58.80;;;;;;4933640;29;20205;-70
2022/03/13 08:41:06;;;;;;;6.63;4.28;;;5.10;59.00;;;;;;4929916;29;20230;-70
2022/03/13 08:43:32;;;;;;;8.57;6.88;;;5.20;58.80;;;;;;4928786;28;20210;-70
2022/03/13 08:46:01;;;;;;;6.65;5.22;;;5.30;58.70;;;;;;4933060;29;20210;-70
2022/03/13 08:48:28;;;;;;;7.60;6.35;;;5.40;58.70;;;;;;4933673;29;20220;-70
2022/03/13 08:50:55;;;;;;;7.75;4.93;;;5.40;57.80;;;;;;4932199;29;20548;-70
2022/03/13 08:53:23;;;;;;;5.50;3.45;;;5.50;57.50;;;;;;4932702;29;20697;-70
2022/03/13 08:55:50;;;;;;;3.90;3.53;;;5.60;57.70;;;;;;4933386;29;20663;-70
2022/03/13 08:58:17;;;;;;;5.82;5.22;;;5.60;57.60;;;;;;4933769;29;20202;-70
2022/03/13 09:00:43;;;;;;;8.60;5.10;;;5.70;57.70;;;;;;4932166;29;20615;-70
2022/03/13 09:03:12;;;;;;;5.28;3.92;;;5.80;57.80;;;;;;4931600;29;20293;-70
2022/03/13 09:05:39;;;;;;;12.02;5.80;;;5.90;57.50;;;;;;4932595;29;20293;-70
2022/03/13 09:08:05;;;;;;;8.63;7.90;;;5.90;57.50;;;;;;4931339;29;20230;-70
2022/03/13 09:10:32;;;;;;;6.90;6.22;;;5.90;57.60;;;;;;4924021;28;20245;-70
2022/03/13 09:12:59;;;;;;;8.60;6.40;;;6.00;57.10;;;;;;4933328;29;20651;-70
2022/03/13 09:15:26;;;;;;;4.50;4.10;;;6.20;57.30;;;;;;4923269;29;20210;-70
2022/03/13 09:17:53;;;;;;;4.57;3.97;;;6.30;57.00;;;;;;4938495;29;20220;-71
2022/03/13 09:20:22;;;;;;;6.45;5.90;;;6.40;56.40;;;;;;4932742;29;20671;-70
2022/03/13 09:22:49;;;;;;;8.13;4.50;;;6.50;56.20;;;;;;4933369;29;20202;-70
2022/03/13 09:25:18;;;;;;;6.53;4.93;;;6.50;56.60;;;;;;4934093;29;20206;-70
2022/03/13 09:27:45;;;;;;;5.80;5.40;;;6.60;56.80;;;;;;4931001;29;20314;-70
2022/03/13 09:30:12;;;;;;;6.60;6.00;;;6.70;56.80;;;;;;4932507;29;20224;-70
2022/03/13 09:32:39;;;;;;;8.23;6.38;;;6.80;56.40;;;;;;4931840;29;20198;-71
2022/03/13 09:35:06;;;;;;;5.07;4.78;;;6.90;56.40;;;;;;4931388;29;20214;-70
2022/03/13 09:37:35;;;;;;;6.43;5.82;;;7.00;55.40;;;;;;4933010;29;20206;-70
2022/03/13 09:40:01;;;;;;;6.65;6.10;;;7.10;55.00;;;;;;4931658;29;20205;-70
2022/03/13 09:42:28;;;;;;;5.90;5.30;;;7.10;55.80;;;;;;4932661;28;20222;-70
2022/03/13 09:44:55;;;;;;;6.72;6.18;;;7.30;55.40;;;;;;4922626;29;20517;-70
2022/03/13 09:47:22;;;;;;;4.82;4.53;;;7.30;55.50;;;;;;4931597;29;20607;-70
2022/03/13 09:49:50;;;;;;;11.23;5.75;;;7.40;55.10;;;;;;4935452;29;20229;-69
2022/03/13 09:52:18;;;;;;;7.97;7.25;;;7.40;54.60;;;;;;4933763;29;20225;-70
2022/03/13 09:54:46;;;;;;;4.72;4.32;;;7.40;54.20;;;;;;4935860;29;20314;-70
2022/03/13 09:57:13;;;;;;;7.40;5.53;;;7.50;53.80;;;;;;4936861;29;20212;-70
2022/03/13 09:59:39;;;;;;;7.82;4.93;;;7.50;54.00;;;;;;4935499;29;20206;-70
2022/03/13 10:02:07;;;;;;;5.03;4.20;;;7.60;53.40;;;;;;4934870;29;20300;-70
2022/03/13 10:04:34;;;;;;;6.80;6.15;;;7.70;53.40;;;;;;4937509;29;20216;-70
2022/03/13 10:07:02;;;;;;;7.55;6.82;;;7.70;53.60;;;;;;4936705;29;20671;-70
2022/03/13 10:09:30;;;;;;;6.95;5.70;;;7.80;54.30;;;;;;4937043;29;20234;-70
2022/03/13 10:12:07;;;;;;;7.47;4.60;;;7.90;54.60;;;;;;4936956;29;20233;-70
2022/03/13 10:14:35;;;;;;;6.38;5.93;;;8.00;54.30;;;;;;4937338;29;20213;-71
2022/03/13 10:17:02;;;;;;;6.47;5.97;;;8.00;53.30;;;;;;4936777;29;20284;-70
2022/03/13 10:19:31;;;;;;;6.90;6.30;;;8.10;53.20;;;;;;4936713;29;20301;-70
2022/03/13 10:22:07;;;;;;;7.10;6.43;;;8.10;53.00;;;;;;4936551;29;20980;-70
2022/03/13 10:24:42;;;;;;;7.47;6.38;;;8.10;53.60;;;;;;4936079;29;20209;-70
2022/03/13 10:27:15;;;;;;;8.43;5.97;;;8.20;54.20;;;;;;4936706;29;20621;-70
2022/03/13 10:29:42;;;;;;;7.43;6.30;;;8.30;54.70;;;;;;4936295;29;20341;-70
2022/03/13 10:32:09;;;;;;;11.10;7.50;;;8.30;53.80;;;;;;4935948;29;20253;-70
2022/03/13 10:34:36;;;;;;;8.30;6.45;;;8.40;53.60;;;;;;4933489;29;20210;-70
2022/03/13 10:37:04;;;;;;;7.72;7.03;;;8.50;53.70;;;;;;4936190;29;20221;-72
2022/03/13 10:39:33;;;;;;;7.95;7.20;;;8.60;53.50;;;;;;4935406;29;20244;-70
2022/03/13 10:42:02;;;;;;;14.25;5.55;;;8.70;53.10;;;;;;4936067;29;20226;-72
2022/03/13 10:44:34;;;;;;;6.70;6.10;;;8.70;53.20;;;;;;4935962;29;20261;-71
2022/03/13 10:47:03;;;;;;;7.18;6.25;;;8.80;53.10;;;;;;4936041;29;20577;-72
2022/03/13 10:49:40;;;;;;;6.72;6.22;;;8.80;53.00;;;;;;4937112;29;20788;-71
2022/03/13 10:52:23;;;;;;;9.10;6.95;;;8.90;52.40;;;;;;4936317;29;20238;-71
2022/03/13 10:54:50;;;;;;;7.18;6.65;;;9.00;52.50;;;;;;4935480;29;20713;-71
2022/03/13 10:57:18;;;;;;;5.80;5.35;;;9.00;52.70;;;;;;4935589;29;20218;-71
2022/03/13 11:00:05;;;;;;;9.00;7.18;;;8.90;53.50;;;;;;4935437;29;20214;-71
2022/03/13 11:02:32;;;;;;;5.80;5.30;;;9.00;54.00;;;;;;4935753;29;20249;-71
2022/03/13 11:05:00;;;;;;;7.65;6.95;;;9.10;53.40;;;;;;4935467;29;20210;-72
2022/03/13 11:07:27;;;;;;;8.10;7.18;;;9.10;53.30;;;;;;4927599;29;20513;-71
2022/03/13 11:09:54;;;;;;;6.45;5.70;;;9.10;53.50;;;;;;4934604;29;20276;-71
2022/03/13 11:12:22;;;;;;;7.25;6.75;;;9.10;53.70;;;;;;4935599;29;20737;-72
2022/03/13 11:14:54;;;;;;;5.30;4.78;;;9.20;53.60;;;;;;4936202;29;20218;-72
2022/03/13 11:17:26;;;;;;;5.82;5.38;;;9.30;52.90;;;;;;4936266;29;20206;-71
2022/03/13 11:19:55;;;;;;;5.88;5.38;;;9.30;52.60;;;;;;4936881;29;20297;-72
2022/03/13 11:22:22;;;;;;;10.18;7.15;;;9.30;52.20;;;;;;4938035;29;20226;-71
2022/03/13 11:24:50;;;;;;;7.95;7.15;;;9.40;52.70;;;;;;4939708;29;20206;-72
2022/03/13 11:27:17;;;;;;;8.55;6.95;;;9.30;52.60;;;;;;4937687;29;20214;-70
2022/03/13 11:29:45;;;;;;;7.53;6.93;;;9.40;54.00;;;;;;4938663;29;20233;-71
2022/03/13 11:32:37;;;;;;;8.95;6.70;;;9.50;52.90;;;;;;4938124;29;20716;-71
2022/03/13 11:35:25;;;;;;;4.35;4.05;;;9.50;52.60;;;;;;4938238;29;20257;-71
2022/03/13 11:37:53;;;;;;;7.18;4.95;;;9.60;52.60;;;;;;4951921;23;20238;-67
2022/03/13 11:40:30;;;;;;;7.22;6.50;;;9.60;52.20;;;;;;4934006;29;20213;-67
2022/03/13 11:43:06;;;;;;;6.65;5.68;;;9.60;52.60;;;;;;4934477;29;20329;-67
2022/03/13 11:45:35;;;;;;;8.38;5.75;;;9.60;52.40;;;;;;4929444;29;20281;-68
2022/03/13 11:48:40;;;;;;;7.00;6.38;;;9.70;52.20;;;;;;4933560;29;20232;-67
2022/03/13 11:51:09;;;;;;;7.63;6.32;;;9.60;52.10;;;;;;4933603;29;20213;-67
2022/03/13 11:53:48;;;;;;;9.02;6.72;;;9.70;51.70;;;;;;4934002;29;20643;-68
2022/03/13 11:56:27;;;;;;;7.65;6.85;;;9.70;51.90;;;;;;4933795;29;20213;-68
2022/03/13 11:58:56;;;;;;;8.75;6.15;;;9.70;52.00;;;;;;4933969;29;20648;-67
2022/03/13 12:01:36;;;;;;;7.75;6.95;;;9.80;52.10;;;;;;4933432;29;20213;-67
2022/03/13 12:04:25;;;;;;;6.50;6.10;;;9.90;51.60;;;;;;4934095;29;20372;-67
2022/03/13 12:07:00;;;;;;;7.57;6.05;;;10.00;50.70;;;;;;4927108;29;20202;-68
2022/03/13 12:09:43;;;;;;;6.80;6.18;;;10.00;50.50;;;;;;4927023;29;20229;-68
2022/03/13 12:12:13;;;;;;;7.18;6.55;;;10.10;50.60;;;;;;4933175;29;20506;-68
2022/03/13 12:15:02;;;;;;;8.35;6.07;;;10.10;50.70;;;;;;4934102;29;20300;-68
2022/03/13 12:17:30;;;;;;;8.70;7.03;;;10.10;50.40;;;;;;4921688;29;20330;-67
2022/03/13 12:19:58;;;;;;;7.60;6.88;;;10.10;50.70;;;;;;4914656;29;20210;-67
2022/03/13 12:22:28;;;;;;;5.72;5.40;;;10.20;51.40;;;;;;4914707;29;20221;-66
2022/03/13 12:24:57;;;;;;;4.85;4.53;;;10.40;51.00;;;;;;4914893;29;20674;-67
2022/03/13 12:27:24;;;;;;;5.50;4.95;;;10.40;49.90;;;;;;4924595;29;20690;-66
2022/03/13 12:29:55;;;;;;;6.15;5.55;;;10.50;49.90;;;;;;4932251;29;20233;-66
2022/03/13 12:32:23;;;;;;;6.45;5.93;;;10.50;50.40;;;;;;4933243;29;20218;-67
2022/03/13 12:34:49;;;;;;;6.50;5.20;;;10.60;50.50;;;;;;4931378;29;20570;-67
2022/03/13 12:37:17;;;;;;;6.88;6.35;;;10.60;50.00;;;;;;4932371;29;20300;-67
2022/03/13 12:39:55;;;;;;;7.10;6.53;;;10.60;50.00;;;;;;4932345;29;20205;-67
2022/03/13 12:42:24;;;;;;;6.75;6.25;;;10.60;51.00;;;;;;4932380;29;20240;-67
2022/03/13 12:45:11;;;;;;;7.95;7.22;;;10.70;50.70;;;;;;4933227;29;20209;-67
2022/03/13 12:47:42;;;;;;;7.20;6.65;;;10.70;50.50;;;;;;4921645;29;20226;-67
2022/03/13 12:50:11;;;;;;;8.57;5.78;;;10.90;50.60;;;;;;4924821;29;20230;-67
2022/03/13 12:52:39;;;;;;;8.80;6.85;;;11.00;50.30;;;;;;4926680;29;20658;-67
2022/03/13 12:55:08;;;;;;;5.93;5.38;;;11.00;49.80;;;;;;4937432;28;20216;-68
2022/03/13 12:57:35;;;;;;;7.05;5.57;;;11.00;49.60;;;;;;4930809;29;20242;-68
2022/03/13 13:00:03;;;;;;;6.80;6.20;;;11.10;50.00;;;;;;4914149;29;20297;-68
2022/03/13 13:02:32;;;;;;;6.60;6.07;;;11.10;50.00;;;;;;4913988;29;20206;-66
2022/03/13 13:05:01;;;;;;;6.13;5.53;;;11.10;49.30;;;;;;4915165;29;20207;-66
2022/03/13 13:07:30;;;;;;;7.07;6.43;;;11.20;48.80;;;;;;4931751;29;20237;-66
2022/03/13 13:09:58;;;;;;;6.40;5.90;;;11.20;48.70;;;;;;4919677;29;20258;-67
2022/03/13 13:12:30;;;;;;;3.85;3.60;;;11.30;48.10;;;;;;4927680;29;20213;-67
2022/03/13 13:14:58;;;;;;;6.40;5.90;;;11.30;48.10;;;;;;4930476;29;20214;-67
2022/03/13 13:17:27;;;;;;;3.65;3.45;;;11.30;48.40;;;;;;4933438;29;20360;-67
2022/03/13 13:19:56;;;;;;;5.28;4.93;;;11.30;48.20;;;;;;4922115;29;20202;-67
2022/03/13 13:22:29;;;;;;;7.05;6.30;;;11.30;47.80;;;;;;4918112;29;20207;-67
2022/03/13 13:24:57;;;;;;;7.00;5.97;;;11.30;48.20;;;;;;4921069;29;20215;-67
2022/03/13 13:27:31;;;;;;;5.10;4.70;;;11.40;48.60;;;;;;4928014;29;20257;-66
2022/03/13 13:29:58;;;;;;;6.18;5.20;;;11.50;47.90;;;;;;4933122;29;20222;-66
2022/03/13 13:32:28;;;;;;;6.15;5.60;;;11.50;48.10;;;;;;4932229;29;20252;-66
2022/03/13 13:35:08;;;;;;;5.50;5.05;;;11.50;47.90;;;;;;4922123;29;20593;-66
2022/03/13 13:37:37;;;;;;;6.60;6.00;;;11.60;47.70;;;;;;4924354;29;20257;-66
2022/03/13 13:40:09;;;;;;;6.20;5.60;;;11.60;48.30;;;;;;4918182;29;20230;-67
2022/03/13 13:42:39;;;;;;;3.72;3.53;;;11.70;47.90;;;;;;4922174;29;20210;-67
2022/03/13 13:45:32;;;;;;;5.07;4.75;;;11.70;47.30;;;;;;4923483;29;21023;-66
2022/03/13 13:48:24;;;;;;;5.18;4.72;;;11.70;46.50;;;;;;4930592;29;20237;-67
2022/03/13 13:51:13;;;;;;;6.50;5.90;;;11.70;46.90;;;;;;4925979;29;20246;-67
2022/03/13 13:53:49;;;;;;;6.07;5.63;;;11.70;48.00;;;;;;4936107;29;20559;-66
2022/03/13 13:56:16;;;;;;;5.47;4.70;;;11.80;47.80;;;;;;4955561;28;20322;-67
2022/03/13 13:58:45;;;;;;;5.30;4.90;;;11.80;48.00;;;;;;4951730;28;20312;-67
2022/03/13 14:01:23;;;;;;;7.70;7.03;;;11.80;47.90;;;;;;4919730;29;20290;-67
2022/03/13 14:03:50;;;;;;;6.38;5.90;;;11.90;48.60;;;;;;4920170;29;20201;-67
2022/03/13 14:06:18;;;;;;;6.57;5.97;;;12.00;48.60;;;;;;4921849;29;20235;-67
2022/03/13 14:08:47;;;;;;;5.93;5.50;;;12.00;49.10;;;;;;4920108;29;20726;-67
2022/03/13 14:11:13;;;;;;;6.47;5.97;;;12.00;48.10;;;;;;4931636;29;20223;-67
2022/03/13 14:13:40;;;;;;;6.05;4.65;;;12.00;47.90;;;;;;4927906;29;20221;-66
2022/03/13 14:16:08;;;;;;;10.63;4.80;;;12.00;47.80;;;;;;4934999;29;20257;-67
2022/03/13 14:18:35;;;;;;;4.82;4.43;;;12.00;48.00;;;;;;4935843;29;20226;-67
2022/03/13 14:21:02;;;;;;;10.15;6.65;;;12.00;48.50;;;;;;4930363;29;20230;-67
2022/03/13 14:23:29;;;;;;;7.55;6.95;;;12.10;49.10;;;;;;4931722;29;20322;-66
2022/03/13 14:25:56;;;;;;;9.07;7.00;;;12.10;49.70;;;;;;4935374;29;20543;-66
2022/03/13 14:28:24;;;;;;;7.25;6.32;;;12.10;49.60;;;;;;4934564;29;20222;-67
2022/03/13 14:30:52;;;;;;;6.53;5.93;;;12.10;49.20;;;;;;4931029;29;20317;-67
2022/03/13 14:33:20;;;;;;;6.70;6.00;;;12.20;48.20;;;;;;4933338;29;20644;-67
2022/03/13 14:35:47;;;;;;;6.82;6.22;;;12.20;47.80;;;;;;4933464;29;20206;-66
2022/03/13 14:38:14;;;;;;;5.70;5.30;;;12.20;47.70;;;;;;4930541;29;20230;-66
2022/03/13 14:40:41;;;;;;;6.95;6.45;;;12.20;48.00;;;;;;4916210;29;20311;-67
2022/03/13 14:43:08;;;;;;;4.53;4.22;;;12.20;47.90;;;;;;4918823;29;20321;-67
2022/03/13 14:45:34;;;;;;;5.95;4.30;;;12.20;47.60;;;;;;4916322;29;20349;-67
2022/03/13 14:48:01;;;;;;;6.50;5.72;;;12.30;48.00;;;;;;4917538;29;20298;-67
2022/03/13 14:50:29;;;;;;;5.03;4.63;;;12.30;47.50;;;;;;4921677;29;20294;-67
2022/03/13 14:52:56;;;;;;;6.90;6.28;;;12.30;47.80;;;;;;4922363;29;20285;-68
2022/03/13 14:55:23;;;;;;;5.32;4.82;;;12.30;48.20;;;;;;4923999;29;20298;-68
2022/03/13 14:57:49;;;;;;;6.85;6.10;;;12.30;48.00;;;;;;4919711;29;20222;-67
2022/03/13 15:00:17;;;;;;;4.78;4.28;;;12.20;48.50;;;;;;4931122;29;20321;-68
2022/03/13 15:02:44;;;;;;;7.05;6.35;;;12.30;47.30;;;;;;4926226;29;20542;-68
2022/03/13 15:05:12;;;;;;;7.07;6.20;;;12.30;47.50;;;;;;4926258;29;20276;-68
2022/03/13 15:07:40;;;;;;;6.72;6.22;;;12.20;47.30;;;;;;4919163;29;20226;-68
2022/03/13 15:10:08;;;;;;;7.32;6.63;;;12.10;47.80;;;;;;4933254;29;20229;-68
2022/03/13 15:12:35;;;;;;;6.68;6.07;;;12.10;48.10;;;;;;4927963;29;20273;-68
2022/03/13 15:15:02;;;;;;;8.25;7.47;;;12.00;47.90;;;;;;4929145;29;20313;-68
2022/03/13 15:17:29;;;;;;;7.78;6.95;;;12.00;48.50;;;;;;4927293;29;20226;-68
2022/03/13 15:19:56;;;;;;;6.60;6.00;;;12.00;49.00;;;;;;4933575;29;20206;-68
2022/03/13 15:22:23;;;;;;;7.35;6.65;;;12.00;49.20;;;;;;4923738;29;20238;-68
2022/03/13 15:24:51;;;;;;;6.25;5.70;;;12.00;49.40;;;;;;4928377;29;20648;-69
2022/03/13 15:27:18;;;;;;;5.22;4.82;;;12.00;49.80;;;;;;4926826;29;20225;-68
2022/03/13 15:29:45;;;;;;;7.60;6.90;;;12.10;49.50;;;;;;4933380;29;20237;-67
2022/03/13 15:32:12;;;;;;;6.82;6.20;;;12.10;49.10;;;;;;4922548;29;20277;-68
2022/03/13 15:34:39;;;;;;;7.40;6.80;;;12.10;49.70;;;;;;4925594;29;20209;-68
2022/03/13 15:37:05;;;;;;;7.03;6.40;;;12.00;49.90;;;;;;4934188;29;20229;-68
2022/03/13 15:39:32;;;;;;;9.90;6.75;;;12.00;49.80;;;;;;4932282;29;20205;-68
2022/03/13 15:42:00;;;;;;;8.70;6.80;;;12.00;50.10;;;;;;4934006;29;20631;-67
2022/03/13 15:44:27;;;;;;;5.90;5.55;;;12.00;49.90;;;;;;4923479;29;20211;-67
2022/03/13 15:46:54;;;;;;;8.43;6.35;;;12.00;50.00;;;;;;4929717;29;20679;-67
2022/03/13 15:49:21;;;;;;;6.63;5.95;;;11.90;50.20;;;;;;4920581;29;20227;-67
2022/03/13 15:51:48;;;;;;;7.45;6.75;;;11.90;50.00;;;;;;4914750;29;20227;-67
2022/03/13 15:54:15;;;;;;;8.13;7.38;;;11.90;50.40;;;;;;4922192;29;20550;-67
2022/03/13 15:56:42;;;;;;;8.60;7.90;;;11.80;50.50;;;;;;4932361;29;20471;-67
2022/03/13 15:59:10;;;;;;;8.45;6.90;;;11.80;50.80;;;;;;4927768;29;20789;-68
2022/03/13 16:01:37;;;;;;;6.25;5.75;;;11.80;50.60;;;;;;4924851;29;20635;-66
2022/03/13 16:04:04;;;;;;;6.13;5.60;;;11.80;50.30;;;;;;4922971;29;20266;-67
2022/03/13 16:06:31;;;;;;;7.30;6.60;;;11.70;50.50;;;;;;4924723;29;20214;-67
2022/03/13 16:08:58;;;;;;;6.80;6.20;;;11.70;50.40;;;;;;4927463;29;20230;-69
2022/03/13 16:11:25;;;;;;;7.05;6.65;;;11.70;51.00;;;;;;4914903;29;20580;-68
2022/03/13 16:13:52;;;;;;;9.10;6.90;;;11.60;51.20;;;;;;4920627;29;20639;-67
2022/03/13 16:16:21;;;;;;;7.45;6.68;;;11.50;51.30;;;;;;4933552;29;20234;-67
2022/03/13 16:18:47;;;;;;;8.40;7.25;;;11.40;51.60;;;;;;4930588;29;20219;-68
2022/03/13 16:21:15;;;;;;;7.97;7.28;;;11.40;51.70;;;;;;4936705;29;20232;-68
2022/03/13 16:23:42;;;;;;;7.05;6.13;;;11.30;51.50;;;;;;4931493;29;20206;-68
2022/03/13 16:26:09;;;;;;;6.72;6.10;;;11.40;51.60;;;;;;4933096;29;20210;-68
2022/03/13 16:28:35;;;;;;;8.20;7.13;;;11.30;51.50;;;;;;4915303;29;20262;-68
2022/03/13 16:31:02;;;;;;;6.85;6.28;;;11.30;51.30;;;;;;4914536;29;20929;-67
2022/03/13 16:33:30;;;;;;;8.20;7.25;;;11.40;51.30;;;;;;4924343;29;20250;-67
2022/03/13 16:35:57;;;;;;;8.13;6.40;;;11.30;51.50;;;;;;4926740;29;20301;-68
2022/03/13 16:38:25;;;;;;;7.70;5.82;;;11.30;51.80;;;;;;4932346;29;20249;-68
2022/03/13 16:40:53;;;;;;;8.13;6.07;;;11.20;51.60;;;;;;4925321;29;20225;-68
2022/03/13 16:43:20;;;;;;;7.68;6.97;;;11.20;51.80;;;;;;4915152;29;20207;-68
2022/03/13 16:45:47;;;;;;;7.18;6.47;;;11.10;52.20;;;;;;4914877;29;20221;-67
2022/03/13 16:48:14;;;;;;;8.45;7.70;;;11.00;52.10;;;;;;4915494;29;20234;-67
2022/03/13 16:50:45;;;;;;;7.95;7.13;;;11.00;52.10;;;;;;4918051;29;20245;-68
2022/03/13 16:53:12;;;;;;;7.07;6.57;;;11.10;52.30;;;;;;4919131;29;20231;-68
2022/03/13 16:55:38;;;;;;;7.22;6.50;;;10.90;52.50;;;;;;4918362;28;20217;-68
2022/03/13 16:58:06;;;;;;;6.22;5.72;;;10.80;52.70;;;;;;4934479;29;20234;-68
2022/03/13 17:00:32;;;;;;;9.00;6.95;;;10.80;52.80;;;;;;4926358;29;20293;-69
2022/03/13 17:03:01;;;;;;;7.25;6.75;;;10.80;53.00;;;;;;4928472;29;20214;-68
2022/03/13 17:05:28;;;;;;;8.70;6.72;;;10.70;53.10;;;;;;4933508;29;20305;-68
2022/03/13 17:07:56;;;;;;;8.88;8.02;;;10.60;53.40;;;;;;4929535;29;20234;-68
2022/03/13 17:10:23;;;;;;;7.70;6.90;;;10.50;53.70;;;;;;4931405;29;20364;-67
2022/03/13 17:12:51;;;;;;;10.63;8.93;;;10.40;53.90;;;;;;4932655;29;20225;-68
2022/03/13 17:15:18;;;;;;;13.07;10.00;;;10.20;54.10;;;;;;4933920;29;20206;-67
2022/03/13 17:17:45;;;;;;;16.67;11.18;;;10.20;54.50;;;;;;4934289;29;20280;-68
2022/03/13 17:20:13;;;;;;;13.25;9.50;;;10.10;55.20;;;;;;4937119;29;20484;-68
2022/03/13 17:22:39;;;;;;;9.27;8.43;;;10.00;54.60;;;;;;4932824;29;20300;-68
2022/03/13 17:25:10;;;;;;;8.30;7.50;;;9.90;55.60;;;;;;4927033;29;20221;-68
2022/03/13 17:27:36;;;;;;;10.10;8.73;;;9.80;55.90;;;;;;4931265;29;20803;-68
2022/03/13 17:30:04;;;;;;;7.70;7.00;;;9.70;56.10;;;;;;4930425;29;20203;-68
2022/03/13 17:32:30;;;;;;;8.30;7.38;;;9.60;56.10;;;;;;4925880;29;20672;-68
2022/03/13 17:34:57;;;;;;;11.73;8.00;;;9.60;56.20;;;;;;4927048;29;20621;-68
2022/03/13 17:37:24;;;;;;;12.02;8.95;;;9.50;56.40;;;;;;4931436;29;20658;-66
2022/03/13 17:39:50;;;;;;;9.18;8.48;;;9.50;56.40;;;;;;4931796;29;20253;-66
2022/03/13 17:42:19;;;;;;;8.52;7.72;;;9.40;56.50;;;;;;4932029;29;20202;-67
2022/03/13 17:44:45;;;;;;;9.73;7.47;;;9.50;56.50;;;;;;4929863;29;20203;-67
2022/03/13 17:47:12;;;;;;;8.45;7.68;;;9.40;56.30;;;;;;4931909;29;20217;-67
2022/03/13 17:49:39;;;;;;;8.93;6.65;;;9.50;56.20;;;;;;4925805;29;20206;-68
2022/03/13 17:52:07;;;;;;;8.77;7.47;;;9.50;55.90;;;;;;4922980;29;20328;-66
2022/03/13 17:54:35;;;;;;;9.70;7.38;;;9.60;55.90;;;;;;4929694;29;20206;-68
2022/03/13 17:57:01;;;;;;;9.95;7.18;;;9.50;55.80;;;;;;4924323;29;20210;-66
2022/03/13 17:59:29;;;;;;;6.70;6.10;;;9.50;55.90;;;;;;4936183;29;20217;-66
2022/03/13 18:01:56;;;;;;;6.53;6.03;;;9.40;55.70;;;;;;4926534;29;20694;-67